createdAt,value
2023-03-13T00:01:40.942Z,1.60
2023-03-13T00:04:08.766Z,2.38
2023-03-13T00:06:37.900Z,2.50
2023-03-13T00:09:09.587Z,3.17
2023-03-13T00:11:37.435Z,3.67
2023-03-13T00:14:07.057Z,4.03
2023-03-13T00:16:37.464Z,3.13
2023-03-13T00:19:06.904Z,1.77
2023-03-13T00:21:34.810Z,2.50
2023-03-13T00:24:02.660Z,1.55
2023-03-13T00:26:31.896Z,2.70
2023-03-13T00:28:59.776Z,2.53
2023-03-13T00:31:28.946Z,1.38
2023-03-13T00:33:59.685Z,2.28
2023-03-13T00:36:29.293Z,3.42
2023-03-13T00:38:57.948Z,1.80
2023-03-13T00:41:28.043Z,2.10
2023-03-13T00:43:57.964Z,3.22
2023-03-13T00:46:27.996Z,2.03
2023-03-13T00:48:55.864Z,2.08
2023-03-13T00:51:26.889Z,2.55
2023-03-13T00:53:55.396Z,1.80
2023-03-13T00:56:23.323Z,2.85
2023-03-13T00:58:51.683Z,2.38
2023-03-13T01:01:22.626Z,3.10
2023-03-13T01:03:52.642Z,2.67
2023-03-13T01:06:22.898Z,2.20
2023-03-13T01:08:51.268Z,2.67
2023-03-13T01:11:21.873Z,2.38
2023-03-13T01:13:50.497Z,3.42
2023-03-13T01:16:21.917Z,2.03
2023-03-13T01:18:52.179Z,1.77
2023-03-13T01:21:20.930Z,1.85
2023-03-13T01:23:49.852Z,2.50
2023-03-13T01:26:18.279Z,2.45
2023-03-13T01:28:46.537Z,1.90
2023-03-13T01:31:15.457Z,2.80
2023-03-13T01:33:44.569Z,2.33
2023-03-13T01:36:12.523Z,2.88
2023-03-13T01:38:40.679Z,2.08
2023-03-13T01:41:10.226Z,1.90
2023-03-13T01:43:38.837Z,2.95
2023-03-13T01:46:14.491Z,2.15
2023-03-13T01:48:49.720Z,2.60
2023-03-13T01:51:22.440Z,2.03
2023-03-13T01:53:55.214Z,1.98
2023-03-13T01:56:28.785Z,2.10
2023-03-13T01:58:59.202Z,1.88
2023-03-13T02:01:28.127Z,1.90
2023-03-13T02:03:59.030Z,2.08
2023-03-13T02:06:30.775Z,2.15
2023-03-13T02:09:03.056Z,2.38
2023-03-13T02:11:39.682Z,2.92
2023-03-13T02:14:07.602Z,2.00
2023-03-13T02:16:37.381Z,2.42
2023-03-13T02:19:18.273Z,2.90
2023-03-13T02:21:52.874Z,2.15
2023-03-13T02:24:29.183Z,2.17
2023-03-13T02:26:58.481Z,2.58
2023-03-13T02:29:26.848Z,2.60
2023-03-13T02:31:55.068Z,3.15
2023-03-13T02:34:26.825Z,2.38
2023-03-13T02:36:55.054Z,4.10
2023-03-13T02:39:25.987Z,2.25
2023-03-13T02:41:54.372Z,2.38
2023-03-13T02:44:23.504Z,2.25
2023-03-13T02:46:53.091Z,2.53
2023-03-13T02:49:25.200Z,2.55
2023-03-13T02:51:54.627Z,3.35
2023-03-13T02:54:27.642Z,2.33
2023-03-13T02:56:58.631Z,3.00
2023-03-13T02:59:28.100Z,2.95
2023-03-13T03:01:55.953Z,3.42
2023-03-13T03:04:25.431Z,2.45
2023-03-13T03:06:54.064Z,2.92
2023-03-13T03:09:22.364Z,2.28
2023-03-13T03:11:50.600Z,2.58
2023-03-13T03:14:18.433Z,2.20
2023-03-13T03:16:47.740Z,2.00
2023-03-13T03:19:15.859Z,2.33
2023-03-13T03:21:43.711Z,2.10
2023-03-13T03:24:11.486Z,3.15
2023-03-13T03:26:39.329Z,2.90
2023-03-13T03:29:08.257Z,2.22
2023-03-13T03:31:36.404Z,2.20
2023-03-13T03:34:05.538Z,2.20
2023-03-13T03:36:33.266Z,2.30
2023-03-13T03:39:01.011Z,2.25
2023-03-13T03:41:28.879Z,1.52
2023-03-13T03:43:56.708Z,2.00
2023-03-13T03:46:24.683Z,2.08
2023-03-13T03:48:52.437Z,2.13
2023-03-13T03:51:21.696Z,1.90
2023-03-13T03:53:49.429Z,2.20
2023-03-13T03:56:17.228Z,2.22
2023-03-13T03:58:45.380Z,1.40
2023-03-13T04:01:13.329Z,1.40
2023-03-13T04:03:41.140Z,1.27
2023-03-13T04:06:09.986Z,1.92
2023-03-13T04:08:39.095Z,1.23
2023-03-13T04:11:06.870Z,1.00
2023-03-13T04:13:34.700Z,1.00
2023-03-13T04:16:08.255Z,1.27
2023-03-13T04:18:35.982Z,1.30
2023-03-13T04:21:05.579Z,1.05
2023-03-13T04:23:33.364Z,1.27
2023-03-13T04:26:02.479Z,1.08
2023-03-13T04:28:30.227Z,1.35
2023-03-13T04:30:58.301Z,1.10
2023-03-13T04:33:26.456Z,1.00
2023-03-13T04:35:54.187Z,0.90
2023-03-13T04:38:22.088Z,0.85
2023-03-13T04:40:49.915Z,1.00
2023-03-13T04:43:19.000Z,0.80
2023-03-13T04:45:47.005Z,1.13
2023-03-13T04:48:14.777Z,0.85
2023-03-13T04:50:42.561Z,0.95
2023-03-13T04:53:10.320Z,0.75
2023-03-13T04:55:38.075Z,1.20
2023-03-13T04:58:05.842Z,1.20
2023-03-13T05:00:35.020Z,0.93
2023-03-13T05:03:02.797Z,1.35
2023-03-13T05:05:30.557Z,1.77
2023-03-13T05:07:58.388Z,1.65
2023-03-13T05:10:26.321Z,2.33
2023-03-13T05:12:54.059Z,1.88
2023-03-13T05:15:21.777Z,2.38
2023-03-13T05:17:52.969Z,2.22
2023-03-13T05:20:22.018Z,2.50
2023-03-13T05:22:49.854Z,2.78
2023-03-13T05:25:17.701Z,2.00
2023-03-13T05:27:46.504Z,2.47
2023-03-13T05:30:14.533Z,2.15
2023-03-13T05:32:42.312Z,1.90
2023-03-13T05:35:11.462Z,3.58
2023-03-13T05:37:41.275Z,2.10
2023-03-13T05:40:10.703Z,1.80
2023-03-13T05:42:38.456Z,2.45
2023-03-13T05:45:08.810Z,2.97
2023-03-13T05:47:38.570Z,2.85
2023-03-13T05:50:07.823Z,3.10
2023-03-13T05:52:36.909Z,2.70
2023-03-13T05:55:04.757Z,2.95
2023-03-13T05:57:32.444Z,3.08
2023-03-13T06:00:00.558Z,3.15
2023-03-13T06:02:28.332Z,2.15
2023-03-13T06:04:56.227Z,2.63
2023-03-13T06:07:24.013Z,2.63
2023-03-13T06:09:53.067Z,2.40
2023-03-13T06:12:20.803Z,3.53
2023-03-13T06:14:48.504Z,3.83
2023-03-13T06:17:16.348Z,3.20
2023-03-13T06:19:44.165Z,3.42
2023-03-13T06:22:11.853Z,3.10
2023-03-13T06:24:39.639Z,4.07
2023-03-13T06:27:09.772Z,3.78
2023-03-13T06:29:37.640Z,2.88
2023-03-13T06:32:06.079Z,2.53
2023-03-13T06:34:34.008Z,2.45
2023-03-13T06:37:01.880Z,3.22
2023-03-13T06:39:29.792Z,3.58
2023-03-13T06:41:57.505Z,3.08
2023-03-13T06:44:27.204Z,2.45
2023-03-13T06:46:55.094Z,3.78
2023-03-13T06:49:22.921Z,2.67
2023-03-13T06:51:50.656Z,3.63
2023-03-13T06:54:18.504Z,3.80
2023-03-13T06:56:46.228Z,4.13
2023-03-13T06:59:13.967Z,3.53
2023-03-13T07:01:43.103Z,2.92
2023-03-13T07:04:14.229Z,2.88
2023-03-13T07:06:42.020Z,2.85
2023-03-13T07:09:10.361Z,3.33
2023-03-13T07:11:38.101Z,3.55
2023-03-13T07:14:16.614Z,2.97
2023-03-13T07:16:46.864Z,3.40
2023-03-13T07:19:15.228Z,2.42
2023-03-13T07:21:43.985Z,3.03
2023-03-13T07:24:11.813Z,3.08
2023-03-13T07:26:40.340Z,2.90
2023-03-13T07:29:08.991Z,3.88
2023-03-13T07:31:36.844Z,2.25
2023-03-13T07:34:06.224Z,4.47
2023-03-13T07:36:35.440Z,2.58
2023-03-13T07:39:03.289Z,3.47
2023-03-13T07:41:31.023Z,3.05
2023-03-13T07:43:58.719Z,3.45
2023-03-13T07:46:26.656Z,3.75
2023-03-13T07:48:55.238Z,4.30
2023-03-13T07:51:42.178Z,2.60
2023-03-13T07:54:11.816Z,5.35
2023-03-13T07:56:39.937Z,3.30
2023-03-13T07:59:07.933Z,2.72
2023-03-13T08:01:35.883Z,5.60
2023-03-13T08:04:04.097Z,2.80
2023-03-13T08:06:36.689Z,2.78
2023-03-13T08:09:05.598Z,4.57
2023-03-13T08:11:33.637Z,4.00
2023-03-13T08:14:01.429Z,4.03
2023-03-13T08:16:31.056Z,3.58
2023-03-13T08:19:00.058Z,3.65
2023-03-13T08:21:29.714Z,4.15
2023-03-13T08:24:01.201Z,4.72
2023-03-13T08:26:30.773Z,3.13
2023-03-13T08:29:00.224Z,3.10
2023-03-13T08:31:30.076Z,3.55
2023-03-13T08:33:58.187Z,3.13
2023-03-13T08:36:27.275Z,3.20
2023-03-13T08:38:58.947Z,3.72
2023-03-13T08:41:29.621Z,5.18
2023-03-13T08:43:58.598Z,4.15
2023-03-13T08:46:26.942Z,3.38
2023-03-13T08:48:55.947Z,3.85
2023-03-13T08:51:25.381Z,3.35
2023-03-13T08:53:53.755Z,3.08
2023-03-13T08:56:23.548Z,3.08
2023-03-13T08:58:53.695Z,3.80
2023-03-13T09:01:23.127Z,4.90
2023-03-13T09:03:51.493Z,3.55
2023-03-13T09:06:19.406Z,3.53
2023-03-13T09:08:47.163Z,3.38
2023-03-13T09:11:17.312Z,4.75
2023-03-13T09:13:47.250Z,4.13
2023-03-13T09:16:18.042Z,3.40
2023-03-13T09:18:46.137Z,5.78
2023-03-13T09:21:16.637Z,3.72
2023-03-13T09:23:44.376Z,3.60
2023-03-13T09:26:13.193Z,3.97
2023-03-13T09:28:42.069Z,2.33
2023-03-13T09:31:11.621Z,3.47
2023-03-13T09:33:41.512Z,2.63
2023-03-13T09:36:10.038Z,2.85
2023-03-13T09:38:38.270Z,3.50
2023-03-13T09:41:21.069Z,2.60
2023-03-13T09:43:53.012Z,3.25
2023-03-13T09:46:26.559Z,2.83
2023-03-13T09:48:58.503Z,3.38
2023-03-13T09:51:30.544Z,3.95
2023-03-13T09:54:03.067Z,3.97
2023-03-13T09:56:35.254Z,3.45
2023-03-13T09:59:12.974Z,3.78
2023-03-13T10:01:44.057Z,3.38
2023-03-13T10:04:28.779Z,2.30
2023-03-13T10:06:56.705Z,4.22
2023-03-13T10:09:29.410Z,3.08
2023-03-13T10:12:05.886Z,3.25
2023-03-13T10:14:42.947Z,2.25
2023-03-13T10:17:21.190Z,2.00
2023-03-13T10:19:56.994Z,2.17
2023-03-13T10:22:27.769Z,4.18
2023-03-13T10:24:59.275Z,3.30
2023-03-13T10:27:27.200Z,3.22
2023-03-13T10:29:55.024Z,3.72
2023-03-13T10:32:23.030Z,3.60
2023-03-13T10:34:58.349Z,2.65
2023-03-13T10:37:27.580Z,3.35
2023-03-13T10:39:56.085Z,2.78
2023-03-13T10:42:28.800Z,3.72
2023-03-13T10:45:00.613Z,3.83
2023-03-13T10:47:29.062Z,2.92
2023-03-13T10:49:59.699Z,3.13
2023-03-13T10:52:33.630Z,2.45
2023-03-13T10:55:03.856Z,3.95
2023-03-13T10:57:32.684Z,3.38
2023-03-13T11:00:03.771Z,3.42
2023-03-13T11:02:35.463Z,4.10
2023-03-13T11:05:31.668Z,2.97
2023-03-13T11:07:59.424Z,2.75
2023-03-13T11:10:29.871Z,3.42
2023-03-13T11:12:59.949Z,3.33
2023-03-13T11:15:33.667Z,3.35
2023-03-13T11:18:07.721Z,3.45
2023-03-13T11:20:40.378Z,3.58
2023-03-13T11:23:19.754Z,2.92
2023-03-13T11:26:01.118Z,3.53
2023-03-13T11:28:40.978Z,2.35
2023-03-13T11:31:15.655Z,3.15
2023-03-13T11:33:57.514Z,2.78
2023-03-13T11:36:35.090Z,1.77
2023-03-13T11:39:17.520Z,2.80
2023-03-13T11:41:59.610Z,3.13
2023-03-13T11:44:47.837Z,2.28
2023-03-13T11:47:33.766Z,2.40
2023-03-13T11:50:20.027Z,3.17
2023-03-13T11:53:05.143Z,3.78
2023-03-13T11:55:46.623Z,4.25
2023-03-13T11:58:35.430Z,3.50
2023-03-13T12:01:07.584Z,2.22
2023-03-13T12:03:41.809Z,3.20
2023-03-13T12:06:27.997Z,2.60
2023-03-13T12:09:04.220Z,1.90
2023-03-13T12:11:38.086Z,3.08
2023-03-13T12:14:13.085Z,1.90
2023-03-13T12:16:44.810Z,2.70
2023-03-13T12:19:16.157Z,2.28
2023-03-13T12:21:49.062Z,3.03
2023-03-13T12:24:27.510Z,3.45
2023-03-13T12:26:59.703Z,3.42
2023-03-13T12:29:40.952Z,2.22
2023-03-13T12:32:17.993Z,2.83
2023-03-13T12:34:56.611Z,2.15
2023-03-13T12:37:31.910Z,3.15
2023-03-13T12:40:10.453Z,1.60
2023-03-13T12:42:47.017Z,1.85
2023-03-13T12:45:18.700Z,3.17
2023-03-13T12:48:10.011Z,3.35
2023-03-13T12:50:52.654Z,3.47
2023-03-13T12:53:46.487Z,2.97
2023-03-13T12:56:42.639Z,2.72
2023-03-13T12:59:15.740Z,2.30
2023-03-13T13:01:46.784Z,2.45
2023-03-13T13:04:16.867Z,2.00
2023-03-13T13:07:03.018Z,2.90
2023-03-13T13:09:32.685Z,2.85
2023-03-13T13:12:04.843Z,3.17
2023-03-13T13:15:04.021Z,1.85
2023-03-13T13:17:49.485Z,2.25
2023-03-13T13:20:37.646Z,2.83
2023-03-13T13:23:33.649Z,2.10
2023-03-13T13:26:47.136Z,1.88
2023-03-13T13:29:57.837Z,2.50
2023-03-13T13:32:42.158Z,2.28
2023-03-13T13:35:23.404Z,2.80
2023-03-13T13:37:51.193Z,2.80
2023-03-13T13:40:22.913Z,2.72
2023-03-13T13:42:56.201Z,2.05
2023-03-13T13:48:25.412Z,2.30
2023-03-13T13:51:34.560Z,3.72
2023-03-13T13:54:04.164Z,2.40
2023-03-13T13:56:37.364Z,3.70
2023-03-13T14:01:37.587Z,1.88
2023-03-13T14:04:14.430Z,1.95
2023-03-13T14:06:45.710Z,3.65
2023-03-13T14:09:23.628Z,2.03
2023-03-13T14:11:51.446Z,2.08
2023-03-13T14:14:21.458Z,2.50
2023-03-13T14:16:50.894Z,2.95
2023-03-13T14:19:31.096Z,2.65
2023-03-13T14:22:01.332Z,3.08
2023-03-13T14:24:29.125Z,3.08
2023-03-13T14:26:57.181Z,2.92
2023-03-13T14:29:27.134Z,3.17
2023-03-13T14:31:56.829Z,3.47
2023-03-13T14:34:25.836Z,4.32
2023-03-13T14:37:04.512Z,2.47
2023-03-13T14:39:39.691Z,3.85
2023-03-13T14:42:11.707Z,2.88
2023-03-13T14:44:40.559Z,3.70
2023-03-13T14:47:10.210Z,3.80
2023-03-13T14:49:38.503Z,3.13
2023-03-13T14:52:18.506Z,3.78
2023-03-13T14:54:54.782Z,2.53
2023-03-13T14:57:27.507Z,3.38
2023-03-13T14:59:56.894Z,2.53
2023-03-13T15:02:27.159Z,2.53
2023-03-13T15:04:59.370Z,4.15
2023-03-13T15:07:36.787Z,4.28
2023-03-13T15:10:20.078Z,3.53
2023-03-13T15:12:47.877Z,4.55
2023-03-13T15:15:15.881Z,3.25
2023-03-13T15:17:43.636Z,4.18
2023-03-13T15:20:13.715Z,2.35
2023-03-13T15:22:44.910Z,4.28
2023-03-13T15:25:17.413Z,3.17
2023-03-13T15:27:45.205Z,3.90
2023-03-13T15:30:17.198Z,3.25
2023-03-13T15:32:46.623Z,2.17
2023-03-13T15:35:25.243Z,2.80
2023-03-13T15:37:54.765Z,2.63
2023-03-13T15:40:24.266Z,2.97
2023-03-13T15:42:52.885Z,3.75
2023-03-13T15:45:21.275Z,2.95
2023-03-13T15:47:49.177Z,3.35
2023-03-13T15:50:20.386Z,3.33
2023-03-13T15:52:48.246Z,2.75
2023-03-13T15:55:17.518Z,3.40
2023-03-13T15:57:47.238Z,3.10
2023-03-13T16:00:19.764Z,2.78
2023-03-13T16:02:47.497Z,3.72
2023-03-13T16:05:15.432Z,2.60
2023-03-13T16:07:43.165Z,3.45
2023-03-13T16:10:18.946Z,3.65
2023-03-13T16:12:46.777Z,4.30
2023-03-13T16:15:14.564Z,3.65
2023-03-13T16:17:42.422Z,5.78
2023-03-13T16:20:16.062Z,2.33
2023-03-13T16:22:44.196Z,3.22
2023-03-13T16:25:12.512Z,3.83
2023-03-13T16:27:42.041Z,4.07
2023-03-13T16:30:17.323Z,3.17
2023-03-13T16:32:45.433Z,2.67
2023-03-13T16:35:13.204Z,3.17
2023-03-13T16:37:41.003Z,4.18
2023-03-13T16:40:18.175Z,2.65
2023-03-13T16:42:47.717Z,2.50
2023-03-13T16:45:15.975Z,2.53
2023-03-13T16:47:45.271Z,3.38
2023-03-13T16:50:21.922Z,2.65
2023-03-13T16:52:49.862Z,3.60
2023-03-13T16:55:18.270Z,3.25
2023-03-13T16:57:47.751Z,4.10
2023-03-13T17:00:20.642Z,4.30
2023-03-13T17:02:50.562Z,3.15
2023-03-13T17:05:18.922Z,3.00
2023-03-13T17:07:48.277Z,3.92
2023-03-13T17:10:21.499Z,3.10
2023-03-13T17:12:51.201Z,3.17
2023-03-13T17:15:20.075Z,4.68
2023-03-13T17:17:51.641Z,2.40
2023-03-13T17:20:22.256Z,3.17
2023-03-13T17:22:50.276Z,3.05
2023-03-13T17:25:18.247Z,2.72
2023-03-13T17:27:47.487Z,2.00
2023-03-13T17:30:23.134Z,3.42
2023-03-13T17:32:51.243Z,2.78
2023-03-13T17:35:20.693Z,2.28
2023-03-13T17:37:48.928Z,2.20
2023-03-13T17:40:19.795Z,2.85
2023-03-13T17:42:48.963Z,2.17
2023-03-13T17:45:17.687Z,4.13
2023-03-13T17:47:49.265Z,2.85
2023-03-13T17:50:19.858Z,3.08
2023-03-13T17:52:47.640Z,3.20
2023-03-13T17:55:15.824Z,3.00
2023-03-13T17:57:44.267Z,2.25
2023-03-13T18:00:20.985Z,3.83
2023-03-13T18:02:50.394Z,2.67
2023-03-13T18:05:18.706Z,2.30
2023-03-13T18:07:46.830Z,2.60
2023-03-13T18:10:20.427Z,2.60
2023-03-13T18:12:48.386Z,2.90
2023-03-13T18:15:16.337Z,3.40
2023-03-13T18:17:44.610Z,2.85
2023-03-13T18:20:18.586Z,2.60
2023-03-13T18:22:46.776Z,2.67
2023-03-13T18:25:15.134Z,3.30
2023-03-13T18:27:42.938Z,3.70
2023-03-13T18:30:22.931Z,3.15
2023-03-13T18:32:51.007Z,3.78
2023-03-13T18:35:20.223Z,3.95
2023-03-13T18:37:49.021Z,3.83
2023-03-13T18:40:19.543Z,3.15
2023-03-13T18:42:47.907Z,4.53
2023-03-13T18:45:16.550Z,3.58
2023-03-13T18:47:44.373Z,3.88
2023-03-13T18:50:23.563Z,3.08
2023-03-13T18:52:51.546Z,2.92
2023-03-13T18:55:19.285Z,3.60
2023-03-13T18:57:47.066Z,4.90
2023-03-13T19:00:20.321Z,5.20
2023-03-13T19:02:49.496Z,4.25
2023-03-13T19:05:18.309Z,4.00
2023-03-13T19:07:48.179Z,4.70
2023-03-13T19:10:20.847Z,4.07
2023-03-13T19:12:48.726Z,4.38
2023-03-13T19:15:16.862Z,4.25
2023-03-13T19:17:45.215Z,3.63
2023-03-13T19:20:16.103Z,3.40
2023-03-13T19:22:43.900Z,4.78
2023-03-13T19:25:14.127Z,3.60
2023-03-13T19:27:42.307Z,2.15
2023-03-13T19:30:21.999Z,3.40
2023-03-13T19:32:50.228Z,3.78
2023-03-13T19:35:21.168Z,4.57
2023-03-13T19:37:49.214Z,2.13
2023-03-13T19:40:22.277Z,3.25
2023-03-13T19:42:50.135Z,2.83
2023-03-13T19:45:19.655Z,3.38
2023-03-13T19:47:47.790Z,3.50
2023-03-13T19:50:21.085Z,2.45
2023-03-13T19:52:48.906Z,3.30
2023-03-13T19:55:17.172Z,2.97
2023-03-13T19:57:46.453Z,4.50
2023-03-13T20:00:20.907Z,3.20
2023-03-13T20:02:49.108Z,2.47
2023-03-13T20:05:17.075Z,2.85
2023-03-13T20:07:45.510Z,3.13
2023-03-13T20:10:13.724Z,2.42
2023-03-13T20:12:41.455Z,1.77
2023-03-13T20:15:11.871Z,1.77
2023-03-13T20:17:39.644Z,2.80
2023-03-13T20:20:08.563Z,2.03
2023-03-13T20:22:36.652Z,2.40
2023-03-13T20:25:04.638Z,2.78
2023-03-13T20:27:32.391Z,2.40
2023-03-13T20:30:00.765Z,2.47
2023-03-13T20:32:30.071Z,3.40
2023-03-13T20:34:57.941Z,2.60
2023-03-13T20:37:25.720Z,2.78
2023-03-13T20:39:53.435Z,3.08
2023-03-13T20:42:22.651Z,2.78
2023-03-13T20:44:50.413Z,3.53
2023-03-13T20:47:18.622Z,3.05
2023-03-13T20:49:47.848Z,3.20
2023-03-13T20:52:15.667Z,3.17
2023-03-13T20:54:43.398Z,2.97
2023-03-13T20:57:11.363Z,3.05
2023-03-13T20:59:39.122Z,3.70
2023-03-13T21:02:07.473Z,2.63
2023-03-13T21:04:35.263Z,2.75
2023-03-13T21:07:05.332Z,1.80
2023-03-13T21:09:34.323Z,3.42
2023-03-13T21:12:02.596Z,2.45
2023-03-13T21:14:30.624Z,3.00
2023-03-13T21:16:58.372Z,4.18
2023-03-13T21:19:26.117Z,2.75
2023-03-13T21:21:53.855Z,4.32
2023-03-13T21:24:22.933Z,3.72
2023-03-13T21:26:50.635Z,3.47
2023-03-13T21:29:18.447Z,2.90
2023-03-13T21:31:46.264Z,3.75
2023-03-13T21:34:14.015Z,3.35
2023-03-13T21:36:41.731Z,2.25
2023-03-13T21:39:09.432Z,3.00
2023-03-13T21:41:38.572Z,3.53
2023-03-13T21:44:07.924Z,2.25
2023-03-13T21:46:35.681Z,2.70
2023-03-13T21:49:03.783Z,3.28
2023-03-13T21:51:31.526Z,2.05
2023-03-13T21:53:59.225Z,2.60
2023-03-13T21:56:26.924Z,2.28
2023-03-13T21:58:56.219Z,1.77
2023-03-13T22:01:24.048Z,2.25
2023-03-13T22:03:51.913Z,1.92
2023-03-13T22:06:22.492Z,1.40
2023-03-13T22:08:51.020Z,2.17
2023-03-13T22:11:18.865Z,1.50
2023-03-13T22:13:46.683Z,4.15
2023-03-13T22:16:15.849Z,1.52
2023-03-13T22:18:43.948Z,1.85
2023-03-13T22:21:11.709Z,2.22
2023-03-13T22:23:39.531Z,1.80
2023-03-13T22:26:07.811Z,1.10
2023-03-13T22:28:35.570Z,2.35
2023-03-13T22:31:05.331Z,1.90
2023-03-13T22:33:35.156Z,2.30
2023-03-13T22:36:03.412Z,1.10
2023-03-13T22:38:31.448Z,1.60
2023-03-13T22:41:02.606Z,1.70
2023-03-13T22:43:30.854Z,1.55
2023-03-13T22:45:59.900Z,1.70
2023-03-13T22:48:27.848Z,1.77
2023-03-13T22:51:08.445Z,1.52
2023-03-13T22:53:37.761Z,1.27
2023-03-13T22:56:06.347Z,0.88
2023-03-13T22:58:34.500Z,1.83
2023-03-13T23:01:02.310Z,1.05
2023-03-13T23:03:30.106Z,0.77
2023-03-13T23:05:57.833Z,1.38
2023-03-13T23:08:26.919Z,1.02
2023-03-13T23:10:54.911Z,0.70
2023-03-13T23:13:22.609Z,1.15
2023-03-13T23:15:57.415Z,1.38
2023-03-13T23:18:26.285Z,1.70
2023-03-13T23:20:54.340Z,0.65
2023-03-13T23:23:22.216Z,1.35
2023-03-13T23:25:51.427Z,1.20
2023-03-13T23:28:19.135Z,1.23
2023-03-13T23:30:46.840Z,0.80
2023-03-13T23:33:14.540Z,0.98
2023-03-13T23:35:43.826Z,1.20
2023-03-13T23:38:12.507Z,1.05
2023-03-13T23:40:40.249Z,1.42
2023-03-13T23:43:09.416Z,1.00
2023-03-13T23:45:37.669Z,0.60
2023-03-13T23:48:05.832Z,0.63
2023-03-13T23:50:33.646Z,1.08
2023-03-13T23:53:01.363Z,1.40
2023-03-13T23:55:29.190Z,0.47
2023-03-13T23:57:56.956Z,0.60
